Schedule Details

Flight Number: CPX404
Departure: Nashville International Airport (KBNA) at N/A
Arrival: Louis Armstrong New Orleans International Airport (KMSY) at N/A
Route: LBY MEI IGB HRTUN CHSNE2


Current Weather Information
KBNA 192153Z 07006KT 3SM RA BR SCT055 OVC070 03/00 A3036 RMK AO2 SFC VIS 4 TSB30E50 SLP284 TS DSPTD P0024 T00280000
KMSY 192216Z VRB03KT 1/4SM FG OVC003 16/16 A2994 RMK AO2 T01610161 RVRNO